sensor_id;sensor_type;location;lat;lon;timestamp;temperature;humidity
13898;DHT22;7019;50.766;4.474;2023-07-28T00:00:10;17.20;99.90
13898;DHT22;7019;50.766;4.474;2023-07-28T00:02:37;17.20;99.90
13898;DHT22;7019;50.766;4.474;2023-07-28T00:05:05;17.20;99.90
13898;DHT22;7019;50.766;4.474;2023-07-28T00:07:32;17.20;99.90
13898;DHT22;7019;50.766;4.474;2023-07-28T00:10:02;17.30;99.90
13898;DHT22;7019;50.766;4.474;2023-07-28T00:12:29;17.20;99.90
13898;DHT22;7019;50.766;4.474;2023-07-28T00:14:58;17.20;99.90
13898;DHT22;7019;50.766;4.474;2023-07-28T00:17:25;17.20;99.90
13898;DHT22;7019;50.766;4.474;2023-07-28T00:19:53;17.20;99.90
13898;DHT22;7019;50.766;4.474;2023-07-28T00:22:20;17.30;99.90
13898;DHT22;7019;50.766;4.474;2023-07-28T00:24:48;17.20;99.90
13898;DHT22;7019;50.766;4.474;2023-07-28T00:27:15;17.20;99.90
13898;DHT22;7019;50.766;4.474;2023-07-28T00:29:42;17.30;99.90
13898;DHT22;7019;50.766;4.474;2023-07-28T00:32:11;17.30;99.90
13898;DHT22;7019;50.766;4.474;2023-07-28T00:34:38;17.30;99.90
13898;DHT22;7019;50.766;4.474;2023-07-28T00:37:05;17.30;99.90
13898;DHT22;7019;50.766;4.474;2023-07-28T00:39:32;17.30;99.90
13898;DHT22;7019;50.766;4.474;2023-07-28T00:41:59;17.30;99.90
13898;DHT22;7019;50.766;4.474;2023-07-28T00:44:26;17.20;99.90
13898;DHT22;7019;50.766;4.474;2023-07-28T00:46:53;17.30;99.90
13898;DHT22;7019;50.766;4.474;2023-07-28T00:49:22;17.20;99.90
13898;DHT22;7019;50.766;4.474;2023-07-28T00:51:50;17.30;99.90
13898;DHT22;7019;50.766;4.474;2023-07-28T00:54:17;17.30;99.90
13898;DHT22;7019;50.766;4.474;2023-07-28T00:56:45;17.30;99.90
13898;DHT22;7019;50.766;4.474;2023-07-28T00:59:13;17.30;99.90
13898;DHT22;7019;50.766;4.474;2023-07-28T01:01:40;17.30;99.90
13898;DHT22;7019;50.766;4.474;2023-07-28T01:04:07;17.30;99.90
13898;DHT22;7019;50.766;4.474;2023-07-28T01:06:41;17.30;99.90
13898;DHT22;7019;50.766;4.474;2023-07-28T01:09:13;17.30;99.90
13898;DHT22;7019;50.766;4.474;2023-07-28T01:11:53;17.30;99.90
13898;DHT22;7019;50.766;4.474;2023-07-28T01:14:20;17.30;99.90
13898;DHT22;7019;50.766;4.474;2023-07-28T01:16:47;17.30;99.90
13898;DHT22;7019;50.766;4.474;2023-07-28T01:19:17;17.30;99.90
13898;DHT22;7019;50.766;4.474;2023-07-28T01:21:48;17.30;99.90
13898;DHT22;7019;50.766;4.474;2023-07-28T01:24:23;17.30;99.90
13898;DHT22;7019;50.766;4.474;2023-07-28T01:26:56;17.30;99.90
13898;DHT22;7019;50.766;4.474;2023-07-28T01:29:24;17.30;99.90
13898;DHT22;7019;50.766;4.474;2023-07-28T01:31:51;17.30;99.90
13898;DHT22;7019;50.766;4.474;2023-07-28T01:34:19;17.40;99.90
13898;DHT22;7019;50.766;4.474;2023-07-28T01:36:46;17.30;99.90
13898;DHT22;7019;50.766;4.474;2023-07-28T01:39:13;17.40;99.90
13898;DHT22;7019;50.766;4.474;2023-07-28T01:41:40;17.30;99.90
13898;DHT22;7019;50.766;4.474;2023-07-28T01:44:10;17.30;99.90
13898;DHT22;7019;50.766;4.474;2023-07-28T01:46:38;17.40;99.90
13898;DHT22;7019;50.766;4.474;2023-07-28T01:49:06;17.40;99.90
13898;DHT22;7019;50.766;4.474;2023-07-28T01:51:33;17.30;99.90
13898;DHT22;7019;50.766;4.474;2023-07-28T01:54:00;17.30;99.90
13898;DHT22;7019;50.766;4.474;2023-07-28T01:56:28;17.30;99.90
13898;DHT22;7019;50.766;4.474;2023-07-28T01:58:55;17.30;99.90
13898;DHT22;7019;50.766;4.474;2023-07-28T02:01:23;17.30;99.90
13898;DHT22;7019;50.766;4.474;2023-07-28T02:03:50;17.30;99.90
13898;DHT22;7019;50.766;4.474;2023-07-28T02:06:17;17.30;99.90
13898;DHT22;7019;50.766;4.474;2023-07-28T02:08:44;17.30;99.90
13898;DHT22;7019;50.766;4.474;2023-07-28T02:11:11;17.40;99.90
13898;DHT22;7019;50.766;4.474;2023-07-28T02:13:38;17.30;99.90
13898;DHT22;7019;50.766;4.474;2023-07-28T02:16:05;17.30;99.90
13898;DHT22;7019;50.766;4.474;2023-07-28T02:18:34;17.40;99.90
13898;DHT22;7019;50.766;4.474;2023-07-28T02:21:01;17.40;99.90
13898;DHT22;7019;50.766;4.474;2023-07-28T02:23:28;17.40;99.90
13898;DHT22;7019;50.766;4.474;2023-07-28T02:25:55;17.40;99.90
13898;DHT22;7019;50.766;4.474;2023-07-28T02:28:22;17.30;99.90
13898;DHT22;7019;50.766;4.474;2023-07-28T02:30:49;17.30;99.90
13898;DHT22;7019;50.766;4.474;2023-07-28T02:33:16;17.30;99.90
13898;DHT22;7019;50.766;4.474;2023-07-28T02:35:45;17.40;99.90
13898;DHT22;7019;50.766;4.474;2023-07-28T02:38:12;17.30;99.90
13898;DHT22;7019;50.766;4.474;2023-07-28T02:40:39;17.30;99.90
13898;DHT22;7019;50.766;4.474;2023-07-28T02:43:06;17.40;99.90
13898;DHT22;7019;50.766;4.474;2023-07-28T02:45:33;17.30;99.90
13898;DHT22;7019;50.766;4.474;2023-07-28T02:48:00;17.30;99.90
13898;DHT22;7019;50.766;4.474;2023-07-28T02:50:27;17.30;99.90
13898;DHT22;7019;50.766;4.474;2023-07-28T02:52:55;17.30;99.90
13898;DHT22;7019;50.766;4.474;2023-07-28T02:55:22;17.30;99.90
13898;DHT22;7019;50.766;4.474;2023-07-28T02:57:49;17.30;99.90
13898;DHT22;7019;50.766;4.474;2023-07-28T03:00:17;17.40;99.90
13898;DHT22;7019;50.766;4.474;2023-07-28T03:02:44;17.30;99.90
13898;DHT22;7019;50.766;4.474;2023-07-28T03:05:11;17.40;99.90
13898;DHT22;7019;50.766;4.474;2023-07-28T03:07:38;17.30;99.90
13898;DHT22;7019;50.766;4.474;2023-07-28T03:10:07;17.30;99.90
13898;DHT22;7019;50.766;4.474;2023-07-28T03:12:34;17.30;99.90
13898;DHT22;7019;50.766;4.474;2023-07-28T03:15:02;17.40;99.90
13898;DHT22;7019;50.766;4.474;2023-07-28T03:17:29;17.30;99.90
13898;DHT22;7019;50.766;4.474;2023-07-28T03:19:56;17.30;99.90
13898;DHT22;7019;50.766;4.474;2023-07-28T03:22:23;17.30;99.90
13898;DHT22;7019;50.766;4.474;2023-07-28T03:24:50;17.30;99.90
13898;DHT22;7019;50.766;4.474;2023-07-28T03:27:19;17.40;99.90
13898;DHT22;7019;50.766;4.474;2023-07-28T03:29:46;17.30;99.90
13898;DHT22;7019;50.766;4.474;2023-07-28T03:32:13;17.30;99.90
13898;DHT22;7019;50.766;4.474;2023-07-28T03:34:40;17.30;99.90
13898;DHT22;7019;50.766;4.474;2023-07-28T03:37:07;17.30;99.90
13898;DHT22;7019;50.766;4.474;2023-07-28T03:39:34;17.30;99.90
13898;DHT22;7019;50.766;4.474;2023-07-28T03:42:01;17.40;99.90
13898;DHT22;7019;50.766;4.474;2023-07-28T03:44:30;17.30;99.90
13898;DHT22;7019;50.766;4.474;2023-07-28T03:46:57;17.30;99.90
13898;DHT22;7019;50.766;4.474;2023-07-28T03:49:24;17.30;99.90
13898;DHT22;7019;50.766;4.474;2023-07-28T03:51:51;17.30;99.90
13898;DHT22;7019;50.766;4.474;2023-07-28T03:54:18;17.40;99.90
13898;DHT22;7019;50.766;4.474;2023-07-28T03:56:45;17.30;99.90
13898;DHT22;7019;50.766;4.474;2023-07-28T03:59:13;17.40;99.90
13898;DHT22;7019;50.766;4.474;2023-07-28T04:01:43;17.30;99.90
13898;DHT22;7019;50.766;4.474;2023-07-28T04:04:10;17.40;99.90
13898;DHT22;7019;50.766;4.474;2023-07-28T04:06:40;17.40;99.90
13898;DHT22;7019;50.766;4.474;2023-07-28T04:09:08;17.40;99.90
13898;DHT22;7019;50.766;4.474;2023-07-28T04:11:35;17.40;99.90
13898;DHT22;7019;50.766;4.474;2023-07-28T04:14:03;17.40;99.90
13898;DHT22;7019;50.766;4.474;2023-07-28T04:16:30;17.40;99.90
13898;DHT22;7019;50.766;4.474;2023-07-28T04:18:59;17.40;99.90
13898;DHT22;7019;50.766;4.474;2023-07-28T04:21:26;17.40;99.90
13898;DHT22;7019;50.766;4.474;2023-07-28T04:23:53;17.40;99.90
13898;DHT22;7019;50.766;4.474;2023-07-28T04:26:20;17.40;99.90
13898;DHT22;7019;50.766;4.474;2023-07-28T04:28:47;17.40;99.90
13898;DHT22;7019;50.766;4.474;2023-07-28T04:31:14;17.40;99.90
13898;DHT22;7019;50.766;4.474;2023-07-28T04:33:41;17.40;99.90
13898;DHT22;7019;50.766;4.474;2023-07-28T04:36:10;17.40;99.90
13898;DHT22;7019;50.766;4.474;2023-07-28T04:38:37;17.40;99.90
13898;DHT22;7019;50.766;4.474;2023-07-28T04:41:04;17.40;99.90
13898;DHT22;7019;50.766;4.474;2023-07-28T04:43:31;17.40;99.90
13898;DHT22;7019;50.766;4.474;2023-07-28T04:45:58;17.40;99.90
13898;DHT22;7019;50.766;4.474;2023-07-28T04:48:26;17.50;99.90
13898;DHT22;7019;50.766;4.474;2023-07-28T04:50:53;17.50;99.90
13898;DHT22;7019;50.766;4.474;2023-07-28T04:53:22;17.50;99.90
13898;DHT22;7019;50.766;4.474;2023-07-28T04:55:49;17.50;99.90
13898;DHT22;7019;50.766;4.474;2023-07-28T04:58:16;17.50;99.90
13898;DHT22;7019;50.766;4.474;2023-07-28T05:00:43;17.60;99.90
13898;DHT22;7019;50.766;4.474;2023-07-28T05:03:10;17.60;99.90
13898;DHT22;7019;50.766;4.474;2023-07-28T05:05:37;17.60;99.90
13898;DHT22;7019;50.766;4.474;2023-07-28T05:08:04;17.60;99.90
13898;DHT22;7019;50.766;4.474;2023-07-28T05:10:33;17.60;99.90
13898;DHT22;7019;50.766;4.474;2023-07-28T05:13:00;17.60;99.90
13898;DHT22;7019;50.766;4.474;2023-07-28T05:15:30;17.60;99.90
13898;DHT22;7019;50.766;4.474;2023-07-28T05:17:57;17.70;99.90
13898;DHT22;7019;50.766;4.474;2023-07-28T05:20:24;17.70;99.90
13898;DHT22;7019;50.766;4.474;2023-07-28T05:22:51;17.70;99.90
13898;DHT22;7019;50.766;4.474;2023-07-28T05:25:18;17.70;99.90
13898;DHT22;7019;50.766;4.474;2023-07-28T05:27:46;17.80;99.90
13898;DHT22;7019;50.766;4.474;2023-07-28T05:30:13;17.80;99.90
13898;DHT22;7019;50.766;4.474;2023-07-28T05:32:40;17.80;99.90
13898;DHT22;7019;50.766;4.474;2023-07-28T05:35:08;17.90;99.90
13898;DHT22;7019;50.766;4.474;2023-07-28T05:37:35;17.90;99.90
13898;DHT22;7019;50.766;4.474;2023-07-28T05:40:02;17.90;99.90
13898;DHT22;7019;50.766;4.474;2023-07-28T05:42:29;17.90;99.90
13898;DHT22;7019;50.766;4.474;2023-07-28T05:44:59;17.90;99.90
13898;DHT22;7019;50.766;4.474;2023-07-28T05:47:26;17.90;99.90
13898;DHT22;7019;50.766;4.474;2023-07-28T05:49:53;17.90;99.90
13898;DHT22;7019;50.766;4.474;2023-07-28T05:52:20;18.00;99.90
13898;DHT22;7019;50.766;4.474;2023-07-28T05:54:48;18.10;99.90
13898;DHT22;7019;50.766;4.474;2023-07-28T05:57:15;18.10;99.90
13898;DHT22;7019;50.766;4.474;2023-07-28T05:59:42;18.10;99.90
13898;DHT22;7019;50.766;4.474;2023-07-28T06:02:10;18.10;99.90
13898;DHT22;7019;50.766;4.474;2023-07-28T06:04:37;18.10;99.90
13898;DHT22;7019;50.766;4.474;2023-07-28T06:07:05;18.10;99.90
13898;DHT22;7019;50.766;4.474;2023-07-28T06:09:32;18.10;99.90
13898;DHT22;7019;50.766;4.474;2023-07-28T06:12:00;18.20;99.90
13898;DHT22;7019;50.766;4.474;2023-07-28T06:14:27;18.20;99.90
13898;DHT22;7019;50.766;4.474;2023-07-28T06:16:54;18.30;99.90
13898;DHT22;7019;50.766;4.474;2023-07-28T06:19:22;18.30;99.90
13898;DHT22;7019;50.766;4.474;2023-07-28T06:21:50;18.30;99.90
13898;DHT22;7019;50.766;4.474;2023-07-28T06:24:17;18.40;99.90
13898;DHT22;7019;50.766;4.474;2023-07-28T06:26:44;18.40;99.90
13898;DHT22;7019;50.766;4.474;2023-07-28T06:29:11;18.50;99.90
13898;DHT22;7019;50.766;4.474;2023-07-28T06:31:38;18.50;99.90
13898;DHT22;7019;50.766;4.474;2023-07-28T06:34:06;18.50;99.90
13898;DHT22;7019;50.766;4.474;2023-07-28T06:36:35;18.50;99.90
13898;DHT22;7019;50.766;4.474;2023-07-28T06:39:02;18.50;99.90
13898;DHT22;7019;50.766;4.474;2023-07-28T06:41:29;18.60;99.90
13898;DHT22;7019;50.766;4.474;2023-07-28T06:43:56;18.60;99.90
13898;DHT22;7019;50.766;4.474;2023-07-28T06:46:23;18.70;99.90
13898;DHT22;7019;50.766;4.474;2023-07-28T06:48:50;18.70;99.90
13898;DHT22;7019;50.766;4.474;2023-07-28T06:51:17;18.90;99.90
13898;DHT22;7019;50.766;4.474;2023-07-28T06:53:45;18.90;99.90
13898;DHT22;7019;50.766;4.474;2023-07-28T06:56:12;19.10;99.90
13898;DHT22;7019;50.766;4.474;2023-07-28T06:58:39;19.30;99.90
13898;DHT22;7019;50.766;4.474;2023-07-28T07:01:06;19.40;99.90
13898;DHT22;7019;50.766;4.474;2023-07-28T07:03:36;19.60;99.90
13898;DHT22;7019;50.766;4.474;2023-07-28T07:06:03;19.70;99.90
13898;DHT22;7019;50.766;4.474;2023-07-28T07:08:30;19.80;99.90
13898;DHT22;7019;50.766;4.474;2023-07-28T07:10:59;19.80;99.90
13898;DHT22;7019;50.766;4.474;2023-07-28T07:13:27;19.80;99.90
13898;DHT22;7019;50.766;4.474;2023-07-28T07:15:54;19.80;99.90
13898;DHT22;7019;50.766;4.474;2023-07-28T07:18:22;19.90;99.90
13898;DHT22;7019;50.766;4.474;2023-07-28T07:20:49;20.20;99.90
13898;DHT22;7019;50.766;4.474;2023-07-28T07:23:16;20.20;99.90
13898;DHT22;7019;50.766;4.474;2023-07-28T07:25:43;20.20;99.90
13898;DHT22;7019;50.766;4.474;2023-07-28T07:28:11;20.30;99.90
13898;DHT22;7019;50.766;4.474;2023-07-28T07:30:38;20.30;99.90
13898;DHT22;7019;50.766;4.474;2023-07-28T07:33:06;20.30;99.90
13898;DHT22;7019;50.766;4.474;2023-07-28T07:35:36;20.30;99.90
13898;DHT22;7019;50.766;4.474;2023-07-28T07:38:04;20.40;99.90
13898;DHT22;7019;50.766;4.474;2023-07-28T07:40:34;20.60;99.90
13898;DHT22;7019;50.766;4.474;2023-07-28T07:43:01;20.70;99.90
13898;DHT22;7019;50.766;4.474;2023-07-28T07:45:30;20.80;99.90
13898;DHT22;7019;50.766;4.474;2023-07-28T07:47:58;21.00;99.90
13898;DHT22;7019;50.766;4.474;2023-07-28T07:50:25;21.30;99.90
13898;DHT22;7019;50.766;4.474;2023-07-28T07:52:52;21.50;99.90
13898;DHT22;7019;50.766;4.474;2023-07-28T07:55:19;21.60;99.90
13898;DHT22;7019;50.766;4.474;2023-07-28T07:57:47;21.70;99.90
13898;DHT22;7019;50.766;4.474;2023-07-28T08:00:14;21.80;99.90
13898;DHT22;7019;50.766;4.474;2023-07-28T08:02:43;21.60;99.90
13898;DHT22;7019;50.766;4.474;2023-07-28T08:05:10;21.40;99.90
13898;DHT22;7019;50.766;4.474;2023-07-28T08:07:38;21.40;99.90
13898;DHT22;7019;50.766;4.474;2023-07-28T08:10:05;21.50;99.90
13898;DHT22;7019;50.766;4.474;2023-07-28T08:12:33;21.30;99.90
13898;DHT22;7019;50.766;4.474;2023-07-28T08:15:00;21.30;99.90
13898;DHT22;7019;50.766;4.474;2023-07-28T08:17:27;21.30;99.90
13898;DHT22;7019;50.766;4.474;2023-07-28T08:19:56;21.30;99.90
13898;DHT22;7019;50.766;4.474;2023-07-28T08:22:23;21.30;99.90
13898;DHT22;7019;50.766;4.474;2023-07-28T08:24:51;21.50;99.90
13898;DHT22;7019;50.766;4.474;2023-07-28T08:27:18;21.60;99.90
13898;DHT22;7019;50.766;4.474;2023-07-28T08:29:45;21.70;99.90
13898;DHT22;7019;50.766;4.474;2023-07-28T08:32:12;21.70;99.90
13898;DHT22;7019;50.766;4.474;2023-07-28T08:34:39;21.50;99.90
13898;DHT22;7019;50.766;4.474;2023-07-28T08:37:08;21.40;99.90
13898;DHT22;7019;50.766;4.474;2023-07-28T08:39:35;21.30;99.90
13898;DHT22;7019;50.766;4.474;2023-07-28T08:42:03;21.10;99.90
13898;DHT22;7019;50.766;4.474;2023-07-28T08:44:32;21.10;99.90
13898;DHT22;7019;50.766;4.474;2023-07-28T08:47:00;21.10;99.90
13898;DHT22;7019;50.766;4.474;2023-07-28T08:49:27;21.00;99.90
13898;DHT22;7019;50.766;4.474;2023-07-28T08:51:58;20.90;99.90
13898;DHT22;7019;50.766;4.474;2023-07-28T08:54:27;20.80;99.90
13898;DHT22;7019;50.766;4.474;2023-07-28T08:56:54;20.90;99.90
13898;DHT22;7019;50.766;4.474;2023-07-28T08:59:22;21.00;99.90
13898;DHT22;7019;50.766;4.474;2023-07-28T09:01:51;20.90;99.90
13898;DHT22;7019;50.766;4.474;2023-07-28T09:04:19;21.00;99.90
13898;DHT22;7019;50.766;4.474;2023-07-28T09:06:47;21.10;99.90
13898;DHT22;7019;50.766;4.474;2023-07-28T09:09:14;21.20;99.90
13898;DHT22;7019;50.766;4.474;2023-07-28T09:11:47;21.30;99.90
13898;DHT22;7019;50.766;4.474;2023-07-28T09:14:17;21.50;99.90
13898;DHT22;7019;50.766;4.474;2023-07-28T09:16:45;21.40;99.90
13898;DHT22;7019;50.766;4.474;2023-07-28T09:19:12;21.40;99.90
13898;DHT22;7019;50.766;4.474;2023-07-28T09:21:41;21.40;99.90
13898;DHT22;7019;50.766;4.474;2023-07-28T09:24:10;21.30;99.90
13898;DHT22;7019;50.766;4.474;2023-07-28T09:26:39;21.40;99.90
13898;DHT22;7019;50.766;4.474;2023-07-28T09:29:15;21.30;99.90
13898;DHT22;7019;50.766;4.474;2023-07-28T09:31:43;21.20;99.90
13898;DHT22;7019;50.766;4.474;2023-07-28T09:34:10;21.10;99.90
13898;DHT22;7019;50.766;4.474;2023-07-28T09:36:39;21.00;99.90
13898;DHT22;7019;50.766;4.474;2023-07-28T09:39:07;20.90;99.90
13898;DHT22;7019;50.766;4.474;2023-07-28T09:41:35;20.90;99.90
13898;DHT22;7019;50.766;4.474;2023-07-28T09:44:03;20.90;99.90
13898;DHT22;7019;50.766;4.474;2023-07-28T09:46:33;20.80;99.90
13898;DHT22;7019;50.766;4.474;2023-07-28T09:49:05;20.90;99.90
13898;DHT22;7019;50.766;4.474;2023-07-28T09:51:34;21.10;99.90
13898;DHT22;7019;50.766;4.474;2023-07-28T09:54:05;21.40;99.90
13898;DHT22;7019;50.766;4.474;2023-07-28T09:56:32;21.70;99.90
13898;DHT22;7019;50.766;4.474;2023-07-28T09:59:05;21.90;99.90
13898;DHT22;7019;50.766;4.474;2023-07-28T10:01:37;22.10;99.90
13898;DHT22;7019;50.766;4.474;2023-07-28T10:04:04;22.30;99.90
13898;DHT22;7019;50.766;4.474;2023-07-28T10:06:32;22.50;99.90
13898;DHT22;7019;50.766;4.474;2023-07-28T10:09:00;22.50;99.90
13898;DHT22;7019;50.766;4.474;2023-07-28T10:11:27;22.40;99.90
13898;DHT22;7019;50.766;4.474;2023-07-28T10:13:57;22.30;99.90
13898;DHT22;7019;50.766;4.474;2023-07-28T10:16:30;22.30;99.90
13898;DHT22;7019;50.766;4.474;2023-07-28T10:18:59;22.30;99.90
13898;DHT22;7019;50.766;4.474;2023-07-28T10:21:28;22.40;99.90
13898;DHT22;7019;50.766;4.474;2023-07-28T10:23:58;22.50;99.90
13898;DHT22;7019;50.766;4.474;2023-07-28T10:26:32;22.30;99.90
13898;DHT22;7019;50.766;4.474;2023-07-28T10:29:11;22.40;99.90
13898;DHT22;7019;50.766;4.474;2023-07-28T10:31:50;22.40;99.90
13898;DHT22;7019;50.766;4.474;2023-07-28T10:34:19;22.40;99.90
13898;DHT22;7019;50.766;4.474;2023-07-28T10:36:55;22.30;99.90
13898;DHT22;7019;50.766;4.474;2023-07-28T10:39:23;22.10;99.90
13898;DHT22;7019;50.766;4.474;2023-07-28T10:42:04;21.90;99.90
13898;DHT22;7019;50.766;4.474;2023-07-28T10:44:32;21.80;99.90
13898;DHT22;7019;50.766;4.474;2023-07-28T10:47:00;21.80;99.90
13898;DHT22;7019;50.766;4.474;2023-07-28T10:49:29;21.90;99.90
13898;DHT22;7019;50.766;4.474;2023-07-28T10:51:56;22.10;99.90
13898;DHT22;7019;50.766;4.474;2023-07-28T10:54:23;22.30;99.90
13898;DHT22;7019;50.766;4.474;2023-07-28T10:56:50;22.30;99.90
13898;DHT22;7019;50.766;4.474;2023-07-28T10:59:17;22.30;99.90
13898;DHT22;7019;50.766;4.474;2023-07-28T11:01:45;22.00;99.90
13898;DHT22;7019;50.766;4.474;2023-07-28T11:04:14;21.70;99.90
13898;DHT22;7019;50.766;4.474;2023-07-28T11:06:44;21.50;99.90
13898;DHT22;7019;50.766;4.474;2023-07-28T11:09:13;21.30;99.90
13898;DHT22;7019;50.766;4.474;2023-07-28T11:11:41;21.10;99.90
13898;DHT22;7019;50.766;4.474;2023-07-28T11:14:09;21.00;99.90
13898;DHT22;7019;50.766;4.474;2023-07-28T11:16:37;21.10;99.90
13898;DHT22;7019;50.766;4.474;2023-07-28T11:19:08;21.40;99.90
13898;DHT22;7019;50.766;4.474;2023-07-28T11:21:36;21.60;99.90
13898;DHT22;7019;50.766;4.474;2023-07-28T11:24:07;21.90;99.90
13898;DHT22;7019;50.766;4.474;2023-07-28T11:26:35;22.10;99.90
13898;DHT22;7019;50.766;4.474;2023-07-28T11:29:04;22.30;99.90
13898;DHT22;7019;50.766;4.474;2023-07-28T11:31:31;22.50;99.90
13898;DHT22;7019;50.766;4.474;2023-07-28T11:33:59;22.90;99.90
13898;DHT22;7019;50.766;4.474;2023-07-28T11:36:27;23.20;99.90
13898;DHT22;7019;50.766;4.474;2023-07-28T11:38:57;23.10;99.90
13898;DHT22;7019;50.766;4.474;2023-07-28T11:41:27;22.90;99.90
13898;DHT22;7019;50.766;4.474;2023-07-28T11:43:55;22.70;99.90
13898;DHT22;7019;50.766;4.474;2023-07-28T11:46:35;22.70;99.90
13898;DHT22;7019;50.766;4.474;2023-07-28T11:49:09;22.70;99.90
13898;DHT22;7019;50.766;4.474;2023-07-28T11:51:40;22.70;99.90
13898;DHT22;7019;50.766;4.474;2023-07-28T11:54:11;22.90;99.90
13898;DHT22;7019;50.766;4.474;2023-07-28T11:56:42;23.10;99.90
13898;DHT22;7019;50.766;4.474;2023-07-28T11:59:09;23.10;99.90
13898;DHT22;7019;50.766;4.474;2023-07-28T12:01:51;23.30;99.90
13898;DHT22;7019;50.766;4.474;2023-07-28T12:04:25;23.60;99.90
13898;DHT22;7019;50.766;4.474;2023-07-28T12:07:01;24.00;99.90
13898;DHT22;7019;50.766;4.474;2023-07-28T12:09:28;24.50;99.90
13898;DHT22;7019;50.766;4.474;2023-07-28T12:11:58;24.90;99.90
13898;DHT22;7019;50.766;4.474;2023-07-28T12:14:35;25.20;99.90
13898;DHT22;7019;50.766;4.474;2023-07-28T12:17:11;25.00;99.90
13898;DHT22;7019;50.766;4.474;2023-07-28T12:19:41;25.00;99.90
13898;DHT22;7019;50.766;4.474;2023-07-28T12:22:08;25.30;99.90
13898;DHT22;7019;50.766;4.474;2023-07-28T12:24:35;25.70;99.90
13898;DHT22;7019;50.766;4.474;2023-07-28T12:27:05;26.20;99.90
13898;DHT22;7019;50.766;4.474;2023-07-28T12:29:36;26.30;99.90
13898;DHT22;7019;50.766;4.474;2023-07-28T12:32:04;26.10;99.90
13898;DHT22;7019;50.766;4.474;2023-07-28T12:34:33;25.90;99.90
13898;DHT22;7019;50.766;4.474;2023-07-28T12:37:00;25.80;99.90
13898;DHT22;7019;50.766;4.474;2023-07-28T12:39:27;25.60;99.90
13898;DHT22;7019;50.766;4.474;2023-07-28T12:41:54;25.60;99.90
13898;DHT22;7019;50.766;4.474;2023-07-28T12:44:26;25.60;99.90
13898;DHT22;7019;50.766;4.474;2023-07-28T12:46:53;25.80;99.90
13898;DHT22;7019;50.766;4.474;2023-07-28T12:49:20;26.00;99.90
13898;DHT22;7019;50.766;4.474;2023-07-28T12:51:47;26.10;99.90
13898;DHT22;7019;50.766;4.474;2023-07-28T12:54:14;26.20;99.90
13898;DHT22;7019;50.766;4.474;2023-07-28T12:56:41;25.80;99.90
13898;DHT22;7019;50.766;4.474;2023-07-28T12:59:08;25.80;99.90
13898;DHT22;7019;50.766;4.474;2023-07-28T13:01:38;26.00;99.90
13898;DHT22;7019;50.766;4.474;2023-07-28T13:04:05;26.30;99.90
13898;DHT22;7019;50.766;4.474;2023-07-28T13:06:32;26.10;99.90
13898;DHT22;7019;50.766;4.474;2023-07-28T13:08:59;25.80;99.90
13898;DHT22;7019;50.766;4.474;2023-07-28T13:11:26;25.60;99.90
13898;DHT22;7019;50.766;4.474;2023-07-28T13:13:53;25.50;99.90
13898;DHT22;7019;50.766;4.474;2023-07-28T13:16:21;25.30;99.90
13898;DHT22;7019;50.766;4.474;2023-07-28T13:18:49;25.40;99.90
13898;DHT22;7019;50.766;4.474;2023-07-28T13:21:16;25.40;99.90
13898;DHT22;7019;50.766;4.474;2023-07-28T13:23:43;25.50;99.90
13898;DHT22;7019;50.766;4.474;2023-07-28T13:26:10;25.60;99.90
13898;DHT22;7019;50.766;4.474;2023-07-28T13:28:37;25.90;99.90
13898;DHT22;7019;50.766;4.474;2023-07-28T13:31:08;26.10;99.90
13898;DHT22;7019;50.766;4.474;2023-07-28T13:33:36;26.20;99.90
13898;DHT22;7019;50.766;4.474;2023-07-28T13:36:04;26.10;99.90
13898;DHT22;7019;50.766;4.474;2023-07-28T13:38:34;25.90;99.90
13898;DHT22;7019;50.766;4.474;2023-07-28T13:41:04;25.80;99.90
13898;DHT22;7019;50.766;4.474;2023-07-28T13:43:31;25.80;99.90
13898;DHT22;7019;50.766;4.474;2023-07-28T13:45:58;25.70;99.90
13898;DHT22;7019;50.766;4.474;2023-07-28T13:48:25;25.60;99.90
13898;DHT22;7019;50.766;4.474;2023-07-28T13:50:53;25.60;99.90
13898;DHT22;7019;50.766;4.474;2023-07-28T13:53:21;25.50;99.90
13898;DHT22;7019;50.766;4.474;2023-07-28T13:55:48;25.50;99.90
13898;DHT22;7019;50.766;4.474;2023-07-28T13:58:16;25.40;99.90
13898;DHT22;7019;50.766;4.474;2023-07-28T14:00:43;25.60;99.90
13898;DHT22;7019;50.766;4.474;2023-07-28T14:03:10;25.80;99.90
13898;DHT22;7019;50.766;4.474;2023-07-28T14:05:38;26.00;99.90
13898;DHT22;7019;50.766;4.474;2023-07-28T14:08:05;26.20;99.90
13898;DHT22;7019;50.766;4.474;2023-07-28T14:10:36;26.00;99.90
13898;DHT22;7019;50.766;4.474;2023-07-28T14:13:04;25.70;99.90
13898;DHT22;7019;50.766;4.474;2023-07-28T14:15:31;25.50;99.90
13898;DHT22;7019;50.766;4.474;2023-07-28T14:17:59;25.20;99.90
13898;DHT22;7019;50.766;4.474;2023-07-28T14:20:26;25.10;99.90
13898;DHT22;7019;50.766;4.474;2023-07-28T14:22:53;25.20;99.90
13898;DHT22;7019;50.766;4.474;2023-07-28T14:25:20;25.10;99.90
13898;DHT22;7019;50.766;4.474;2023-07-28T14:27:49;25.20;99.90
13898;DHT22;7019;50.766;4.474;2023-07-28T14:30:16;25.20;99.90
13898;DHT22;7019;50.766;4.474;2023-07-28T14:32:43;25.30;99.90
13898;DHT22;7019;50.766;4.474;2023-07-28T14:35:10;25.50;99.90
13898;DHT22;7019;50.766;4.474;2023-07-28T14:37:37;25.80;99.90
13898;DHT22;7019;50.766;4.474;2023-07-28T14:40:05;25.90;99.90
13898;DHT22;7019;50.766;4.474;2023-07-28T14:42:32;26.10;99.90
13898;DHT22;7019;50.766;4.474;2023-07-28T14:45:01;26.00;99.90
13898;DHT22;7019;50.766;4.474;2023-07-28T14:47:28;26.10;99.90
13898;DHT22;7019;50.766;4.474;2023-07-28T14:49:55;26.00;99.90
13898;DHT22;7019;50.766;4.474;2023-07-28T14:52:22;25.90;99.90
13898;DHT22;7019;50.766;4.474;2023-07-28T14:54:49;26.00;99.90
13898;DHT22;7019;50.766;4.474;2023-07-28T14:57:16;26.00;99.90
13898;DHT22;7019;50.766;4.474;2023-07-28T14:59:43;25.90;99.90
13898;DHT22;7019;50.766;4.474;2023-07-28T15:02:12;25.70;99.90
13898;DHT22;7019;50.766;4.474;2023-07-28T15:04:39;25.70;99.90
13898;DHT22;7019;50.766;4.474;2023-07-28T15:07:06;25.90;99.90
13898;DHT22;7019;50.766;4.474;2023-07-28T15:09:34;25.80;99.90
13898;DHT22;7019;50.766;4.474;2023-07-28T15:12:01;25.90;99.90
13898;DHT22;7019;50.766;4.474;2023-07-28T15:14:28;25.80;99.90
13898;DHT22;7019;50.766;4.474;2023-07-28T15:16:55;25.80;99.90
13898;DHT22;7019;50.766;4.474;2023-07-28T15:19:24;25.90;99.90
13898;DHT22;7019;50.766;4.474;2023-07-28T15:21:51;25.80;99.90
13898;DHT22;7019;50.766;4.474;2023-07-28T15:24:18;25.60;99.90
13898;DHT22;7019;50.766;4.474;2023-07-28T15:26:47;25.40;99.90
13898;DHT22;7019;50.766;4.474;2023-07-28T15:29:15;25.40;99.90
13898;DHT22;7019;50.766;4.474;2023-07-28T15:31:42;25.40;99.90
13898;DHT22;7019;50.766;4.474;2023-07-28T15:34:09;25.50;99.90
13898;DHT22;7019;50.766;4.474;2023-07-28T15:36:38;25.50;99.90
13898;DHT22;7019;50.766;4.474;2023-07-28T15:39:05;25.70;99.90
13898;DHT22;7019;50.766;4.474;2023-07-28T15:41:32;25.80;99.90
13898;DHT22;7019;50.766;4.474;2023-07-28T15:43:59;25.80;99.90
13898;DHT22;7019;50.766;4.474;2023-07-28T15:46:26;25.70;99.90
13898;DHT22;7019;50.766;4.474;2023-07-28T15:48:53;25.60;99.90